Time;durP1;ratioP1;P1;durP2;ratioP2;P2;SDS_P1;SDS_P2;PMS_P1;PMS_P2;Temp;Humidity;BMP_temperature;BMP_pressure;BME280_temperature;BME280_humidity;BME280_pressure;Samples;Min_cycle;Max_cycle;Signal;HPM_P1;HPM_P2
2023/07/12 00:01:16;;;;;;;4.22;1.90;;;19.90;99.90;;;;;;4973271;28;20047;-75
2023/07/12 00:03:42;;;;;;;4.88;2.28;;;19.90;99.90;;;;;;4957168;28;20051;-74
2023/07/12 00:06:20;;;;;;;5.25;1.90;;;19.80;99.90;;;;;;4957183;28;20129;-74
2023/07/12 00:08:46;;;;;;;4.82;1.70;;;19.80;99.90;;;;;;4973185;28;20047;-75
2023/07/12 00:11:21;;;;;;;4.63;1.70;;;19.80;99.90;;;;;;4972992;28;20138;-75
2023/07/12 00:13:47;;;;;;;6.20;1.95;;;19.90;99.90;;;;;;4973412;28;20046;-75
2023/07/12 00:16:36;;;;;;;5.03;2.10;;;19.90;99.90;;;;;;4973405;28;20486;-74
2023/07/12 00:19:05;;;;;;;5.00;2.00;;;19.80;99.90;;;;;;4973164;28;20058;-74
2023/07/12 00:21:31;;;;;;;4.38;2.10;;;19.90;99.90;;;;;;4957019;28;20055;-74
2023/07/12 00:23:58;;;;;;;4.25;1.63;;;19.80;99.90;;;;;;4972947;28;20495;-74
2023/07/12 00:26:35;;;;;;;6.15;2.10;;;19.80;99.90;;;;;;4973061;28;20058;-75
2023/07/12 00:29:03;;;;;;;4.40;1.80;;;19.80;99.90;;;;;;4974138;28;20115;-75
2023/07/12 00:31:29;;;;;;;5.10;2.17;;;19.80;99.90;;;;;;4974413;28;20537;-74
2023/07/12 00:33:56;;;;;;;4.65;2.20;;;19.80;99.90;;;;;;4973286;28;20027;-74
2023/07/12 00:36:25;;;;;;;4.75;1.92;;;19.80;99.90;;;;;;4973216;28;20386;-74
2023/07/12 00:38:51;;;;;;;4.38;2.00;;;19.80;99.90;;;;;;4975761;28;20074;-74
2023/07/12 00:41:56;;;;;;;5.40;2.13;;;19.80;99.90;;;;;;4978380;28;20129;-75
2023/07/12 00:44:36;;;;;;;5.07;2.15;;;19.80;99.90;;;;;;4978097;28;20134;-74
2023/07/12 00:47:02;;;;;;;4.80;1.90;;;19.70;99.90;;;;;;4960603;28;20054;-75
2023/07/12 00:49:28;;;;;;;5.68;2.17;;;19.70;99.90;;;;;;4977935;28;20517;-75
2023/07/12 00:52:04;;;;;;;6.75;2.15;;;19.70;99.90;;;;;;4976842;28;20042;-75
2023/07/12 00:55:25;;;;;;;6.03;2.53;;;19.60;99.90;;;;;;4976599;28;20053;-75
2023/07/12 00:57:51;;;;;;;6.30;3.08;;;19.60;99.90;;;;;;4918126;29;20052;-74
2023/07/12 01:00:17;;;;;;;5.50;2.85;;;19.60;99.90;;;;;;4973674;28;20054;-74
2023/07/12 01:02:46;;;;;;;6.00;2.53;;;19.50;99.90;;;;;;4977914;28;20050;-74
2023/07/12 01:05:13;;;;;;;5.45;3.20;;;19.50;99.90;;;;;;4977946;28;20050;-74
2023/07/12 01:07:39;;;;;;;4.60;2.17;;;19.50;99.90;;;;;;4977777;28;20566;-75
2023/07/12 01:10:08;;;;;;;5.20;3.00;;;19.40;99.90;;;;;;4977571;28;20130;-75
2023/07/12 01:12:34;;;;;;;6.47;3.53;;;19.40;99.90;;;;;;4977464;28;20046;-74
2023/07/12 01:15:00;;;;;;;5.38;2.80;;;19.40;99.90;;;;;;4977726;28;20046;-75
2023/07/12 01:17:27;;;;;;;4.85;2.58;;;19.40;99.90;;;;;;4977443;28;20038;-74
2023/07/12 01:19:52;;;;;;;6.35;3.38;;;19.30;99.90;;;;;;4977639;28;20056;-75
2023/07/12 01:22:18;;;;;;;6.65;3.80;;;19.30;99.90;;;;;;4977295;28;20458;-75
2023/07/12 01:24:44;;;;;;;7.40;4.40;;;19.30;99.90;;;;;;4976417;28;20403;-74
2023/07/12 01:27:19;;;;;;;6.95;3.65;;;19.30;99.90;;;;;;4976242;28;20046;-75
2023/07/12 01:29:48;;;;;;;5.72;2.75;;;19.30;99.90;;;;;;4977697;28;20495;-75
2023/07/12 01:32:14;;;;;;;6.60;3.70;;;19.20;99.90;;;;;;4977216;28;20502;-74
2023/07/12 01:34:40;;;;;;;6.70;3.90;;;19.20;99.90;;;;;;4975947;28;20105;-74
2023/07/12 01:37:06;;;;;;;5.82;3.42;;;19.10;99.90;;;;;;4975834;28;20050;-75
2023/07/12 01:39:33;;;;;;;6.72;3.67;;;19.10;99.90;;;;;;4959670;28;20567;-74
2023/07/12 01:41:59;;;;;;;8.73;4.65;;;19.10;99.90;;;;;;4977315;28;20518;-74
2023/07/12 01:44:25;;;;;;;7.30;3.35;;;19.10;99.90;;;;;;4975984;28;20046;-74
2023/07/12 01:46:50;;;;;;;5.90;3.03;;;19.10;99.90;;;;;;4975932;28;20125;-75
2023/07/12 01:49:16;;;;;;;5.78;2.60;;;19.10;99.90;;;;;;4976959;28;20067;-74
2023/07/12 01:51:42;;;;;;;5.10;2.40;;;19.10;99.90;;;;;;4975813;28;20039;-74
2023/07/12 01:54:08;;;;;;;6.28;2.65;;;19.00;99.90;;;;;;4975712;28;20499;-75
2023/07/12 01:56:34;;;;;;;7.15;3.55;;;19.10;99.90;;;;;;4975485;28;20042;-74
2023/07/12 01:58:59;;;;;;;5.50;2.78;;;19.10;99.90;;;;;;4977153;28;20050;-75
2023/07/12 02:01:25;;;;;;;6.65;3.65;;;19.10;99.90;;;;;;4977082;28;20542;-75
2023/07/12 02:03:51;;;;;;;6.25;3.10;;;19.10;99.90;;;;;;4976945;28;20043;-74
2023/07/12 02:06:16;;;;;;;5.75;2.72;;;19.00;99.90;;;;;;4976822;28;20541;-74
2023/07/12 02:08:43;;;;;;;6.15;3.60;;;19.00;99.90;;;;;;4976634;28;20039;-75
2023/07/12 02:11:09;;;;;;;5.68;2.85;;;19.00;99.90;;;;;;4959508;28;20522;-75
2023/07/12 02:13:36;;;;;;;6.47;3.40;;;19.00;99.90;;;;;;4975607;28;20043;-74
2023/07/12 02:16:02;;;;;;;6.28;3.55;;;18.90;99.90;;;;;;4975621;28;20118;-74
2023/07/12 02:18:28;;;;;;;5.97;3.95;;;18.90;99.90;;;;;;4959528;28;20134;-75
2023/07/12 02:20:53;;;;;;;6.07;3.47;;;18.90;99.90;;;;;;4975371;28;20066;-74
2023/07/12 02:23:19;;;;;;;9.00;3.78;;;18.90;99.90;;;;;;4959302;28;20065;-74
2023/07/12 02:25:45;;;;;;;8.82;3.88;;;18.90;99.90;;;;;;4975629;28;20053;-75
2023/07/12 02:28:11;;;;;;;7.32;3.95;;;18.90;99.90;;;;;;4975135;28;20039;-75
2023/07/12 02:30:38;;;;;;;6.90;4.13;;;18.80;99.90;;;;;;4975319;28;20126;-74
2023/07/12 02:33:03;;;;;;;6.75;3.72;;;18.80;99.90;;;;;;4975135;28;20047;-75
2023/07/12 02:35:30;;;;;;;7.43;4.40;;;18.80;99.90;;;;;;4976409;28;20058;-73
2023/07/12 02:37:57;;;;;;;7.32;3.70;;;18.60;99.90;;;;;;4976775;28;20047;-75
2023/07/12 02:40:24;;;;;;;8.10;3.80;;;18.50;99.90;;;;;;4975352;28;20053;-75
2023/07/12 02:42:50;;;;;;;6.72;3.92;;;18.50;99.90;;;;;;4976490;28;20093;-75
2023/07/12 02:45:16;;;;;;;8.38;4.32;;;18.50;99.90;;;;;;4974935;28;20042;-75
2023/07/12 02:47:42;;;;;;;8.13;3.78;;;18.50;99.90;;;;;;4974723;28;20051;-74
2023/07/12 02:50:08;;;;;;;7.68;4.32;;;18.50;99.90;;;;;;4974990;28;20491;-75
2023/07/12 02:52:34;;;;;;;10.00;4.65;;;18.50;99.90;;;;;;4958715;28;20047;-74
2023/07/12 02:55:00;;;;;;;8.00;4.70;;;18.40;99.90;;;;;;4975829;28;20053;-74
2023/07/12 02:57:26;;;;;;;10.57;4.93;;;18.40;99.90;;;;;;4974505;28;20499;-74
2023/07/12 02:59:51;;;;;;;5.88;3.13;;;18.40;99.90;;;;;;4974302;28;20050;-75
2023/07/12 03:02:18;;;;;;;7.80;4.90;;;18.30;99.90;;;;;;4975307;28;20050;-74
2023/07/12 03:04:44;;;;;;;8.23;4.43;;;18.30;99.90;;;;;;4974696;28;20061;-74
2023/07/12 03:07:10;;;;;;;8.57;4.05;;;18.40;99.90;;;;;;4974472;28;20515;-75
2023/07/12 03:09:36;;;;;;;8.95;4.00;;;18.30;99.90;;;;;;4974204;28;20134;-75
2023/07/12 03:12:03;;;;;;;7.30;4.03;;;18.30;99.90;;;;;;4975282;28;20158;-76
2023/07/12 03:14:29;;;;;;;8.65;4.47;;;18.30;99.90;;;;;;4974564;28;20502;-74
2023/07/12 03:16:55;;;;;;;8.73;4.32;;;18.30;99.90;;;;;;4975607;28;20086;-74
2023/07/12 03:19:21;;;;;;;7.28;4.50;;;18.40;99.90;;;;;;4973987;28;20122;-74
2023/07/12 03:21:47;;;;;;;8.65;5.00;;;18.30;99.90;;;;;;4975226;28;20039;-75
2023/07/12 03:24:15;;;;;;;8.23;5.15;;;18.30;99.90;;;;;;4975082;28;20046;-75
2023/07/12 03:26:41;;;;;;;9.27;5.53;;;18.20;99.90;;;;;;4973958;28;20039;-74
2023/07/12 03:29:07;;;;;;;10.52;5.82;;;18.20;99.90;;;;;;4973761;28;20046;-75
2023/07/12 03:31:33;;;;;;;8.35;5.13;;;18.10;99.90;;;;;;4975251;28;20117;-74
2023/07/12 03:33:59;;;;;;;8.52;5.18;;;18.10;99.90;;;;;;4973691;28;20042;-74
2023/07/12 03:36:30;;;;;;;7.45;4.88;;;18.10;99.90;;;;;;4973786;28;20038;-74
2023/07/12 03:38:57;;;;;;;10.90;6.10;;;18.10;99.90;;;;;;4973803;28;20398;-74
2023/07/12 03:41:23;;;;;;;9.75;5.95;;;18.10;99.90;;;;;;4974836;28;20129;-75
2023/07/12 03:43:49;;;;;;;11.35;5.70;;;18.00;99.90;;;;;;4973692;28;20129;-74
2023/07/12 03:46:15;;;;;;;10.70;5.80;;;18.00;99.90;;;;;;4973544;28;20054;-74
2023/07/12 03:48:41;;;;;;;10.57;6.28;;;18.00;99.90;;;;;;4973374;28;20042;-75
2023/07/12 03:51:09;;;;;;;10.27;4.97;;;18.00;99.90;;;;;;4974571;28;20042;-75
2023/07/12 03:53:35;;;;;;;10.63;5.72;;;18.00;99.90;;;;;;4973504;28;20035;-75
2023/07/12 03:56:01;;;;;;;14.25;5.72;;;18.10;99.90;;;;;;4973658;28;20042;-75
2023/07/12 03:58:31;;;;;;;12.65;5.28;;;17.90;99.90;;;;;;4973296;28;20051;-75
2023/07/12 04:01:00;;;;;;;8.68;4.63;;;17.90;99.90;;;;;;4974524;28;20042;-76
2023/07/12 04:03:26;;;;;;;12.80;5.80;;;17.80;99.90;;;;;;4973221;28;20126;-75
2023/07/12 04:05:52;;;;;;;11.05;5.80;;;17.70;99.90;;;;;;4974424;28;20506;-75
2023/07/12 04:08:19;;;;;;;12.05;6.40;;;17.60;99.90;;;;;;4974382;28;20049;-74
2023/07/12 04:10:45;;;;;;;11.65;6.22;;;17.60;99.90;;;;;;4973119;28;20065;-75
2023/07/12 04:13:11;;;;;;;9.88;5.10;;;17.60;99.90;;;;;;4974231;28;20042;-75
2023/07/12 04:15:43;;;;;;;12.02;6.15;;;17.50;99.90;;;;;;4957305;28;20049;-75
2023/07/12 04:18:08;;;;;;;12.48;5.60;;;17.50;99.90;;;;;;4973207;28;20043;-75
2023/07/12 04:20:38;;;;;;;12.90;6.22;;;17.50;99.90;;;;;;4957245;28;20047;-75
2023/07/12 04:23:04;;;;;;;13.15;6.18;;;17.60;99.90;;;;;;4974611;28;20049;-75
2023/07/12 04:25:30;;;;;;;10.80;5.28;;;17.60;99.90;;;;;;4957322;28;20082;-75
2023/07/12 04:27:55;;;;;;;9.98;4.80;;;17.60;99.90;;;;;;4957046;28;20078;-76
2023/07/12 04:30:21;;;;;;;12.20;5.20;;;17.60;99.90;;;;;;4974430;28;20093;-75
2023/07/12 04:32:47;;;;;;;11.05;4.95;;;17.60;99.90;;;;;;4973411;28;20042;-75
2023/07/12 04:35:14;;;;;;;12.45;5.00;;;17.60;99.90;;;;;;4974081;28;20456;-75
2023/07/12 04:37:45;;;;;;;12.20;4.90;;;17.60;99.90;;;;;;4973262;28;20054;-74
2023/07/12 04:40:12;;;;;;;9.93;4.47;;;17.60;99.90;;;;;;4974153;28;20046;-75
2023/07/12 04:42:37;;;;;;;12.88;4.90;;;17.60;99.90;;;;;;4957432;28;20554;-75
2023/07/12 04:45:04;;;;;;;10.50;4.70;;;17.60;99.90;;;;;;4974503;28;20043;-74
2023/07/12 04:47:30;;;;;;;9.20;4.53;;;17.60;99.90;;;;;;4974595;28;20113;-75
2023/07/12 04:49:56;;;;;;;10.07;4.88;;;17.60;99.90;;;;;;4974318;28;20483;-75
2023/07/12 04:52:22;;;;;;;12.80;5.05;;;17.70;99.90;;;;;;4973185;28;20077;-74
2023/07/12 04:54:48;;;;;;;9.73;4.50;;;17.70;99.90;;;;;;4973024;28;20038;-76
2023/07/12 04:57:13;;;;;;;9.82;4.20;;;17.60;99.90;;;;;;4957011;28;20046;-77
2023/07/12 04:59:39;;;;;;;12.25;5.00;;;17.60;99.90;;;;;;4974189;28;20042;-77
2023/07/12 05:02:06;;;;;;;9.20;4.43;;;17.50;99.90;;;;;;4956806;28;20043;-77
2023/07/12 05:04:31;;;;;;;10.73;4.57;;;17.50;99.90;;;;;;4972785;28;20043;-77
2023/07/12 05:06:57;;;;;;;11.52;4.50;;;17.50;99.90;;;;;;4972685;28;20043;-77
2023/07/12 05:09:23;;;;;;;11.85;5.45;;;17.40;99.90;;;;;;4973784;28;20046;-76
2023/07/12 05:11:49;;;;;;;9.40;4.50;;;17.40;99.90;;;;;;4972864;28;20395;-76
2023/07/12 05:14:16;;;;;;;10.32;5.00;;;17.40;99.90;;;;;;4973888;28;20068;-76
2023/07/12 05:16:42;;;;;;;11.10;4.93;;;17.40;99.90;;;;;;4972606;28;20039;-77
2023/07/12 05:19:08;;;;;;;9.00;4.80;;;17.50;99.90;;;;;;4972661;28;20049;-76
2023/07/12 05:21:33;;;;;;;12.82;5.18;;;17.50;99.90;;;;;;4972735;28;20046;-75
2023/07/12 05:23:59;;;;;;;11.95;5.45;;;17.50;99.90;;;;;;4973606;28;20522;-77
2023/07/12 05:26:25;;;;;;;12.40;5.50;;;17.60;99.90;;;;;;4976329;28;20049;-76
2023/07/12 05:28:52;;;;;;;12.45;5.55;;;17.60;99.90;;;;;;4959929;28;20510;-76
2023/07/12 05:31:18;;;;;;;11.80;5.80;;;17.60;99.90;;;;;;4977459;28;20125;-76
2023/07/12 05:33:46;;;;;;;13.32;5.63;;;17.60;99.90;;;;;;4977166;28;20121;-76
2023/07/12 05:36:13;;;;;;;13.25;6.25;;;17.60;99.90;;;;;;4975886;28;20043;-77
2023/07/12 05:38:39;;;;;;;14.90;6.70;;;17.80;99.90;;;;;;4976072;28;20046;-77
2023/07/12 05:41:05;;;;;;;11.65;6.07;;;17.90;99.90;;;;;;4976183;28;20047;-75
2023/07/12 05:43:33;;;;;;;14.00;7.00;;;18.20;99.90;;;;;;4975944;28;20042;-76
2023/07/12 05:45:59;;;;;;;13.82;6.80;;;18.40;99.90;;;;;;4959706;28;20057;-76
2023/07/12 05:48:25;;;;;;;13.93;6.57;;;18.50;99.90;;;;;;4975799;28;20050;-76
2023/07/12 05:50:58;;;;;;;12.88;6.05;;;18.40;99.90;;;;;;4975843;28;20042;-76
2023/07/12 05:53:24;;;;;;;13.13;6.20;;;18.20;99.90;;;;;;4975556;28;20129;-75
2023/07/12 05:56:00;;;;;;;17.73;7.95;;;18.20;99.90;;;;;;4975798;28;20185;-76
2023/07/12 05:58:26;;;;;;;14.38;7.93;;;18.10;99.90;;;;;;4977064;28;20057;-76
2023/07/12 06:00:58;;;;;;;13.38;7.50;;;18.10;99.90;;;;;;4959376;28;20046;-74
2023/07/12 06:03:24;;;;;;;18.15;8.15;;;18.20;99.90;;;;;;4975691;28;20046;-75
2023/07/12 06:05:50;;;;;;;12.77;7.35;;;18.20;99.90;;;;;;4975642;28;20160;-75
2023/07/12 06:08:16;;;;;;;13.85;7.38;;;18.30;99.90;;;;;;4975490;28;20082;-75
2023/07/12 06:10:44;;;;;;;14.18;7.00;;;18.30;99.90;;;;;;4975197;28;20078;-75
2023/07/12 06:13:10;;;;;;;15.10;7.50;;;18.30;99.90;;;;;;4976514;28;20484;-76
2023/07/12 06:15:37;;;;;;;17.65;7.78;;;18.30;99.90;;;;;;4959215;28;20043;-75
2023/07/12 06:18:03;;;;;;;15.35;7.88;;;18.30;99.90;;;;;;4976367;28;20046;-74
2023/07/12 06:20:29;;;;;;;13.98;7.45;;;18.30;99.90;;;;;;4975328;28;20051;-74
2023/07/12 06:22:54;;;;;;;16.25;8.52;;;18.40;99.90;;;;;;4975038;28;20047;-74
2023/07/12 06:25:20;;;;;;;15.18;7.50;;;18.40;99.90;;;;;;4958862;28;20053;-74
2023/07/12 06:27:46;;;;;;;17.27;8.05;;;18.40;99.90;;;;;;4974759;28;20039;-74
2023/07/12 06:30:12;;;;;;;13.82;7.97;;;18.50;99.90;;;;;;4958832;28;20038;-74
2023/07/12 06:32:38;;;;;;;17.77;7.65;;;18.40;99.90;;;;;;4942453;28;20038;-74
2023/07/12 06:35:04;;;;;;;15.10;8.25;;;18.50;99.90;;;;;;4975387;28;20437;-74
2023/07/12 06:37:30;;;;;;;18.45;8.70;;;18.60;99.90;;;;;;4958650;28;20046;-75
2023/07/12 06:39:56;;;;;;;17.77;9.20;;;18.70;99.90;;;;;;4976209;28;20174;-74
2023/07/12 06:42:21;;;;;;;16.65;7.90;;;18.60;99.90;;;;;;4974625;28;20569;-75
2023/07/12 06:44:47;;;;;;;17.02;8.50;;;18.60;99.90;;;;;;4958542;28;20554;-74
2023/07/12 06:47:13;;;;;;;17.65;9.30;;;18.60;99.90;;;;;;4975816;28;20045;-75
2023/07/12 06:49:38;;;;;;;16.05;9.82;;;18.60;99.90;;;;;;4974563;28;20047;-75
2023/07/12 06:52:12;;;;;;;18.42;9.68;;;18.60;99.90;;;;;;4975946;28;20506;-75
2023/07/12 06:54:38;;;;;;;18.67;9.25;;;18.60;99.90;;;;;;4974763;28;20554;-75
2023/07/12 06:57:07;;;;;;;18.33;10.48;;;18.50;99.90;;;;;;4975843;28;20114;-74
2023/07/12 06:59:33;;;;;;;16.67;8.82;;;18.60;99.90;;;;;;4974557;28;20078;-75
2023/07/12 07:01:59;;;;;;;14.25;8.25;;;18.90;99.90;;;;;;4974604;28;20066;-75
2023/07/12 07:04:25;;;;;;;14.88;8.25;;;19.20;99.90;;;;;;4974566;28;20050;-75
2023/07/12 07:06:50;;;;;;;16.42;7.47;;;19.40;99.90;;;;;;4975739;28;20073;-75
2023/07/12 07:09:16;;;;;;;15.18;7.75;;;19.70;99.90;;;;;;4975765;28;20047;-73
2023/07/12 07:11:42;;;;;;;14.60;7.05;;;20.10;99.90;;;;;;4974162;28;20487;-74
2023/07/12 07:14:08;;;;;;;13.95;7.55;;;20.30;99.90;;;;;;4942053;28;20043;-74
2023/07/12 07:16:34;;;;;;;13.90;6.88;;;20.50;99.90;;;;;;4974174;28;20070;-75
2023/07/12 07:19:00;;;;;;;14.95;7.03;;;20.30;99.90;;;;;;4973961;28;20471;-75
2023/07/12 07:21:26;;;;;;;13.63;6.63;;;20.20;99.90;;;;;;4975146;28;20507;-74
2023/07/12 07:23:52;;;;;;;14.60;6.88;;;20.00;99.90;;;;;;4974051;28;20117;-74
2023/07/12 07:26:18;;;;;;;15.45;7.20;;;19.90;99.90;;;;;;4975194;28;20097;-75
2023/07/12 07:28:44;;;;;;;15.18;6.38;;;19.80;99.90;;;;;;4973936;28;20121;-75
2023/07/12 07:31:10;;;;;;;14.93;7.03;;;19.70;99.90;;;;;;4973704;28;20053;-76
2023/07/12 07:33:39;;;;;;;14.82;6.78;;;19.60;99.90;;;;;;4975345;28;20495;-74
2023/07/12 07:36:10;;;;;;;15.98;6.75;;;19.40;99.90;;;;;;4974032;28;20573;-75
2023/07/12 07:38:37;;;;;;;11.15;5.95;;;19.50;99.90;;;;;;4975271;28;20042;-74
2023/07/12 07:41:12;;;;;;;12.30;5.60;;;19.50;99.90;;;;;;4957578;28;20046;-75
2023/07/12 07:43:41;;;;;;;14.05;6.55;;;19.60;99.90;;;;;;4975172;28;20070;-75
2023/07/12 07:46:14;;;;;;;12.63;5.72;;;19.80;99.90;;;;;;4973422;28;20047;-74
2023/07/12 07:48:40;;;;;;;12.63;5.30;;;19.80;99.90;;;;;;4973439;28;20051;-75
2023/07/12 07:51:10;;;;;;;11.30;5.50;;;19.90;99.90;;;;;;4973544;28;20509;-74
2023/07/12 07:53:35;;;;;;;12.43;5.70;;;20.10;99.90;;;;;;4974945;28;20043;-74
2023/07/12 07:56:01;;;;;;;14.23;5.80;;;20.50;99.90;;;;;;4974686;28;20043;-73
2023/07/12 07:58:27;;;;;;;12.25;5.05;;;20.80;99.90;;;;;;4974551;28;20050;-74
2023/07/12 08:00:53;;;;;;;13.10;5.47;;;21.10;99.90;;;;;;4974419;28;20094;-75
2023/07/12 08:03:19;;;;;;;10.50;5.10;;;21.30;99.90;;;;;;4973612;28;20115;-75
2023/07/12 08:05:45;;;;;;;12.95;5.20;;;21.40;99.90;;;;;;4957550;28;20035;-75
2023/07/12 08:08:12;;;;;;;11.48;4.45;;;21.40;99.90;;;;;;4974696;28;20065;-74
2023/07/12 08:10:38;;;;;;;13.45;5.10;;;21.60;99.90;;;;;;4974293;28;20048;-74
2023/07/12 08:13:04;;;;;;;13.52;5.03;;;21.80;99.90;;;;;;4974398;28;20105;-74
2023/07/12 08:15:30;;;;;;;11.57;5.50;;;21.90;99.90;;;;;;4974707;28;20042;-75
2023/07/12 08:17:56;;;;;;;12.85;5.15;;;22.10;99.90;;;;;;4973136;28;20046;-75
2023/07/12 08:20:23;;;;;;;14.50;4.40;;;22.00;99.90;;;;;;4974585;28;20475;-75
2023/07/12 08:22:49;;;;;;;10.52;4.20;;;22.10;99.90;;;;;;4974328;28;20046;-74
2023/07/12 08:25:15;;;;;;;10.93;4.40;;;22.20;99.90;;;;;;4972923;28;20039;-75
2023/07/12 08:27:41;;;;;;;11.95;4.82;;;22.20;99.90;;;;;;4973201;28;20051;-75
2023/07/12 08:30:08;;;;;;;12.65;4.53;;;22.50;99.90;;;;;;4974520;28;20399;-75
2023/07/12 08:32:34;;;;;;;12.18;4.93;;;22.50;99.90;;;;;;4973261;28;20043;-74
2023/07/12 08:35:01;;;;;;;11.43;4.22;;;22.40;99.90;;;;;;4972908;28;20050;-75
2023/07/12 08:37:27;;;;;;;12.57;5.10;;;22.20;99.90;;;;;;4974448;28;20098;-75
2023/07/12 08:39:56;;;;;;;10.10;4.25;;;21.90;99.90;;;;;;4974446;28;20102;-75
2023/07/12 08:42:35;;;;;;;10.80;4.15;;;21.70;99.90;;;;;;4973210;28;20043;-75
2023/07/12 08:45:18;;;;;;;10.30;4.40;;;21.70;99.90;;;;;;4973058;28;20411;-74
2023/07/12 08:47:45;;;;;;;13.70;5.22;;;21.80;99.90;;;;;;4973935;28;20109;-74
2023/07/12 08:50:13;;;;;;;9.73;5.00;;;21.90;99.90;;;;;;4974186;28;20042;-75
2023/07/12 08:52:40;;;;;;;11.75;4.43;;;22.10;99.90;;;;;;4974022;28;20098;-75
2023/07/12 08:55:14;;;;;;;11.90;5.28;;;22.40;99.90;;;;;;4974015;28;20078;-74
2023/07/12 08:57:41;;;;;;;12.15;5.10;;;22.40;99.90;;;;;;4972763;28;20054;-75
2023/07/12 09:00:12;;;;;;;13.25;5.18;;;22.30;99.90;;;;;;4992256;28;20038;-74
2023/07/12 09:02:38;;;;;;;12.25;4.75;;;22.20;99.90;;;;;;4978151;28;20109;-74
2023/07/12 09:05:19;;;;;;;11.82;4.97;;;22.20;99.90;;;;;;4977673;28;20039;-75
2023/07/12 09:08:09;;;;;;;11.93;4.27;;;22.20;99.90;;;;;;4976449;28;20046;-74
2023/07/12 09:10:45;;;;;;;10.85;4.18;;;22.30;99.90;;;;;;4960282;28;20404;-74
2023/07/12 09:13:13;;;;;;;11.60;5.18;;;22.40;99.90;;;;;;4977879;28;20078;-74
2023/07/12 09:15:50;;;;;;;12.35;4.60;;;22.40;99.90;;;;;;4977484;28;20042;-74
2023/07/12 09:18:36;;;;;;;9.82;4.43;;;22.80;99.90;;;;;;4976575;28;20050;-74
2023/07/12 09:21:15;;;;;;;11.32;3.90;;;23.00;99.90;;;;;;4977678;28;20510;-74
2023/07/12 09:23:43;;;;;;;10.77;4.35;;;22.80;99.90;;;;;;4977673;28;20051;-75
2023/07/12 09:26:29;;;;;;;11.23;4.38;;;22.60;99.90;;;;;;4976472;28;20038;-75
2023/07/12 09:29:11;;;;;;;11.95;5.35;;;22.30;99.90;;;;;;4977156;28;20125;-74
2023/07/12 09:31:40;;;;;;;13.70;5.68;;;22.00;99.90;;;;;;4977266;28;20049;-74
2023/07/12 09:34:14;;;;;;;12.43;4.95;;;21.90;99.90;;;;;;4976519;28;20089;-75
2023/07/12 09:36:40;;;;;;;13.95;4.90;;;21.90;99.90;;;;;;4977477;28;20092;-74
2023/07/12 09:39:10;;;;;;;12.27;5.00;;;22.00;99.90;;;;;;4959556;28;20054;-73
2023/07/12 09:41:36;;;;;;;12.23;5.13;;;22.00;99.90;;;;;;4977331;28;20497;-74
2023/07/12 09:44:02;;;;;;;11.90;4.60;;;21.90;99.90;;;;;;4977247;28;20049;-75
2023/07/12 09:46:38;;;;;;;11.43;5.10;;;22.00;99.90;;;;;;4977269;28;20112;-74
2023/07/12 09:49:13;;;;;;;11.13;4.65;;;22.10;99.90;;;;;;4976818;28;20047;-74
2023/07/12 09:52:10;;;;;;;10.95;4.43;;;22.10;99.90;;;;;;4976893;28;20391;-74
2023/07/12 09:54:36;;;;;;;9.82;4.18;;;22.40;99.90;;;;;;4977155;28;20035;-74
2023/07/12 09:57:17;;;;;;;10.10;4.25;;;22.80;99.90;;;;;;4977075;28;20057;-74
2023/07/12 10:00:05;;;;;;;9.80;4.10;;;23.20;99.90;;;;;;4975762;28;20483;-75
2023/07/12 10:02:38;;;;;;;11.88;4.20;;;23.40;99.90;;;;;;4976990;28;20562;-74
2023/07/12 10:05:21;;;;;;;14.13;4.65;;;23.60;99.90;;;;;;4976972;28;20477;-74
2023/07/12 10:08:04;;;;;;;10.80;4.40;;;23.50;99.90;;;;;;4976775;28;20047;-74
2023/07/12 10:11:13;;;;;;;11.45;4.30;;;23.50;99.90;;;;;;4975969;28;20059;-74
2023/07/12 10:13:49;;;;;;;10.43;4.53;;;23.20;99.90;;;;;;4958650;28;20046;-73
2023/07/12 10:16:21;;;;;;;11.13;4.38;;;22.80;99.90;;;;;;4975326;28;20133;-74
2023/07/12 10:18:49;;;;;;;11.13;4.55;;;22.50;99.90;;;;;;4976626;28;20046;-75
2023/07/12 10:21:20;;;;;;;10.98;4.65;;;22.10;99.90;;;;;;4976627;28;20515;-74
2023/07/12 10:23:58;;;;;;;;;;;22.30;99.90;;;;;;4975782;28;20046;-75
2023/07/12 10:26:23;;;;;;;11.45;3.72;;;22.70;99.90;;;;;;4976566;28;19940;-74
2023/07/12 10:29:12;;;;;;;11.40;3.83;;;23.20;99.90;;;;;;4974807;28;20491;-74
2023/07/12 10:31:46;;;;;;;11.13;4.00;;;23.50;99.90;;;;;;4948750;28;20110;-74
2023/07/12 10:34:24;;;;;;;9.65;3.63;;;23.70;99.90;;;;;;4974849;28;20050;-74
2023/07/12 10:36:55;;;;;;;8.82;3.78;;;24.10;99.90;;;;;;4976382;28;20126;-75
2023/07/12 10:39:27;;;;;;;10.73;3.83;;;24.30;99.90;;;;;;4976296;28;20051;-74
2023/07/12 10:42:05;;;;;;;10.95;4.30;;;24.40;99.90;;;;;;4974964;28;20078;-74
2023/07/12 10:44:39;;;;;;;11.27;3.70;;;24.40;99.90;;;;;;4976002;28;20089;-74
2023/07/12 10:47:09;;;;;;;12.23;3.70;;;24.30;99.90;;;;;;4976173;28;20054;-74
2023/07/12 10:49:56;;;;;;;10.73;3.60;;;23.90;99.90;;;;;;4974709;28;20042;-74
2023/07/12 10:52:32;;;;;;;9.60;3.42;;;23.40;99.90;;;;;;4976051;28;20487;-75
2023/07/12 10:55:17;;;;;;;10.25;3.55;;;23.00;99.90;;;;;;4974746;28;20443;-74
2023/07/12 10:57:50;;;;;;;10.60;3.67;;;22.70;99.90;;;;;;4974422;28;20039;-74
2023/07/12 11:00:21;;;;;;;11.45;3.30;;;22.50;99.90;;;;;;4974600;28;20031;-75
2023/07/12 11:03:02;;;;;;;9.93;3.10;;;22.30;99.90;;;;;;4975880;28;20043;-74
2023/07/12 11:05:45;;;;;;;;;;;22.00;99.90;;;;;;4975957;28;20074;-74
2023/07/12 11:08:29;;;;;;;11.88;2.97;;;21.90;99.90;;;;;;4975710;28;20362;-74
2023/07/12 11:10:58;;;;;;;9.73;2.70;;;21.80;99.90;;;;;;4975215;28;20106;-74
2023/07/12 11:13:32;;;;;;;10.27;3.10;;;21.80;99.90;;;;;;4975378;28;20097;-73
2023/07/12 11:16:17;;;;;;;11.48;3.95;;;21.80;99.90;;;;;;4975695;28;20529;-73
2023/07/12 11:18:54;;;;;;;12.15;4.20;;;21.70;99.90;;;;;;4973973;28;20460;-74
2023/07/12 11:21:51;;;;;;;10.68;3.90;;;21.50;99.90;;;;;;4974844;28;20039;-74
2023/07/12 11:24:25;;;;;;;10.68;4.10;;;21.40;99.90;;;;;;4975429;28;20509;-74
2023/07/12 11:26:55;;;;;;;11.40;3.67;;;21.40;99.90;;;;;;4974025;28;20482;-74
2023/07/12 11:29:30;;;;;;;11.88;3.90;;;21.50;99.90;;;;;;4975280;28;20129;-74
2023/07/12 11:32:07;;;;;;;11.30;4.28;;;21.90;99.90;;;;;;4975223;28;20154;-75
2023/07/12 11:34:39;;;;;;;9.68;3.83;;;22.20;99.90;;;;;;4975061;28;20564;-75
2023/07/12 11:37:25;;;;;;;10.63;4.05;;;22.70;99.90;;;;;;4974954;28;20042;-74
2023/07/12 11:39:51;;;;;;;10.93;4.10;;;22.90;99.90;;;;;;4975047;28;20039;-75
2023/07/12 11:42:26;;;;;;;11.90;3.72;;;23.10;99.90;;;;;;4975170;28;20035;-75
2023/07/12 11:45:04;;;;;;;8.93;3.42;;;23.30;99.90;;;;;;4973947;28;20034;-74
2023/07/12 11:47:31;;;;;;;11.15;3.42;;;23.50;99.90;;;;;;4973684;28;20134;-74
2023/07/12 11:50:00;;;;;;;8.65;3.35;;;23.60;99.90;;;;;;4975070;28;20439;-74
2023/07/12 11:52:27;;;;;;;9.38;3.20;;;23.90;99.90;;;;;;4974981;28;20415;-74
2023/07/12 11:54:54;;;;;;;9.20;3.20;;;24.20;99.90;;;;;;4974671;28;20078;-74
2023/07/12 11:57:20;;;;;;;8.95;3.05;;;24.20;99.90;;;;;;4974928;28;20117;-75
2023/07/12 11:59:48;;;;;;;10.48;3.50;;;24.20;99.90;;;;;;4973606;28;20038;-74
2023/07/12 12:02:19;;;;;;;8.02;3.00;;;24.00;99.90;;;;;;4974843;28;20039;-74
2023/07/12 12:04:50;;;;;;;10.13;2.75;;;23.90;99.90;;;;;;4974823;28;20034;-75
2023/07/12 12:07:38;;;;;;;7.50;2.50;;;23.80;99.90;;;;;;4974345;28;20046;-75
2023/07/12 12:10:05;;;;;;;8.00;2.38;;;23.40;99.90;;;;;;4973268;28;20131;-75
2023/07/12 12:12:33;;;;;;;8.45;2.33;;;23.10;99.90;;;;;;4973138;28;20054;-75
2023/07/12 12:15:00;;;;;;;7.85;2.42;;;22.90;99.90;;;;;;4974687;28;20043;-75
2023/07/12 12:17:32;;;;;;;7.70;2.28;;;22.80;99.90;;;;;;4973105;28;20053;-75
2023/07/12 12:20:11;;;;;;;7.45;2.30;;;22.60;99.90;;;;;;4973467;28;20410;-75
2023/07/12 12:22:40;;;;;;;5.85;2.10;;;22.70;99.90;;;;;;4974572;28;20070;-74
2023/07/12 12:25:15;;;;;;;6.03;2.03;;;23.00;99.90;;;;;;4974564;28;20039;-73
2023/07/12 12:27:43;;;;;;;6.93;1.88;;;23.30;99.90;;;;;;4972961;28;20047;-75
2023/07/12 12:30:15;;;;;;;8.07;2.03;;;23.60;99.90;;;;;;4973300;28;20042;-74
2023/07/12 12:32:55;;;;;;;6.88;2.00;;;23.90;99.90;;;;;;4957666;28;20042;-74
2023/07/12 12:35:21;;;;;;;8.57;2.00;;;24.00;98.40;;;;;;4978501;28;20035;-75
2023/07/12 12:38:11;;;;;;;5.43;1.63;;;24.10;97.60;;;;;;4978510;28;20102;-75
2023/07/12 12:40:45;;;;;;;6.03;1.73;;;24.30;97.40;;;;;;4978370;28;20407;-75
2023/07/12 12:43:18;;;;;;;6.43;1.80;;;24.40;96.30;;;;;;4978430;28;20394;-75
2023/07/12 12:45:43;;;;;;;5.75;1.63;;;24.20;95.70;;;;;;4978122;28;20078;-74
2023/07/12 12:48:13;;;;;;;5.53;1.73;;;24.10;96.50;;;;;;4976791;28;20075;-74
2023/07/12 12:50:39;;;;;;;6.00;1.80;;;24.00;96.70;;;;;;4977885;28;20039;-73
2023/07/12 12:53:09;;;;;;;6.32;1.70;;;23.70;97.00;;;;;;4978086;28;20039;-75